createdAt,value
2022-07-27T00:00:27.245Z,52
2022-07-27T00:03:27.183Z,52
2022-07-27T00:09:27.182Z,52
2022-07-27T00:12:27.200Z,52
2022-07-27T00:15:27.187Z,52
2022-07-27T00:18:27.182Z,52
2022-07-27T00:21:27.206Z,52
2022-07-27T00:24:27.180Z,52
2022-07-27T00:27:27.177Z,53
2022-07-27T00:30:27.198Z,53
2022-07-27T00:33:27.181Z,53
2022-07-27T00:36:27.205Z,53
2022-07-27T00:39:27.188Z,53
2022-07-27T00:42:27.180Z,53
2022-07-27T00:45:27.186Z,53
2022-07-27T00:48:27.249Z,53
2022-07-27T00:51:27.212Z,53
2022-07-27T00:54:27.190Z,53
2022-07-27T00:57:27.185Z,53
2022-07-27T01:03:29.602Z,53
2022-07-27T01:06:27.463Z,53
2022-07-27T01:09:27.205Z,52
2022-07-27T01:12:27.191Z,52
2022-07-27T01:15:27.206Z,52
2022-07-27T01:18:27.193Z,52
2022-07-27T01:21:27.213Z,52
2022-07-27T01:24:27.206Z,52
2022-07-27T01:27:27.186Z,53
2022-07-27T01:30:27.210Z,53
2022-07-27T01:33:27.200Z,53
2022-07-27T01:36:27.208Z,53
2022-07-27T01:39:27.207Z,53
2022-07-27T01:42:27.199Z,53
2022-07-27T01:45:27.197Z,53
2022-07-27T01:48:27.194Z,53
2022-07-27T01:51:27.202Z,53
2022-07-27T01:54:27.209Z,53
2022-07-27T01:57:27.210Z,53
2022-07-27T02:00:27.210Z,53
2022-07-27T02:03:27.214Z,53
2022-07-27T02:06:27.212Z,53
2022-07-27T02:09:27.205Z,53
2022-07-27T02:12:27.207Z,54
2022-07-27T02:15:27.228Z,54
2022-07-27T02:18:32.910Z,54
2022-07-27T02:21:27.207Z,54
2022-07-27T02:24:27.210Z,54
2022-07-27T02:27:27.195Z,54
2022-07-27T02:30:27.211Z,54
2022-07-27T02:36:27.211Z,54
2022-07-27T02:39:27.211Z,54
2022-07-27T02:42:27.207Z,55
2022-07-27T02:45:27.203Z,55
2022-07-27T02:48:27.207Z,55
2022-07-27T02:51:27.217Z,55
2022-07-27T02:54:27.223Z,55
2022-07-27T02:57:27.205Z,55
2022-07-27T03:00:27.232Z,55
2022-07-27T03:03:32.990Z,55
2022-07-27T03:06:27.215Z,55
2022-07-27T03:09:28.720Z,55
2022-07-27T03:12:27.209Z,55
2022-07-27T03:15:27.388Z,55
2022-07-27T03:18:27.207Z,55
2022-07-27T03:21:27.218Z,55
2022-07-27T03:24:27.227Z,55
2022-07-27T03:27:27.232Z,55
2022-07-27T03:30:27.210Z,55
2022-07-27T03:33:27.209Z,55
2022-07-27T03:36:27.223Z,55
2022-07-27T03:39:27.228Z,55
2022-07-27T03:42:27.206Z,55
2022-07-27T03:45:27.211Z,55
2022-07-27T03:48:27.207Z,55
2022-07-27T03:54:27.204Z,55
2022-07-27T03:57:27.214Z,55
2022-07-27T04:00:27.209Z,55
2022-07-27T04:03:27.219Z,55
2022-07-27T04:06:27.225Z,55
2022-07-27T04:12:27.216Z,55
2022-07-27T04:15:27.227Z,55
2022-07-27T04:18:27.213Z,55
2022-07-27T04:21:27.673Z,55
2022-07-27T04:24:27.214Z,55
2022-07-27T04:27:27.225Z,55
2022-07-27T04:30:27.267Z,55
2022-07-27T04:33:27.221Z,55
2022-07-27T04:36:27.229Z,55
2022-07-27T04:39:27.216Z,55
2022-07-27T04:42:27.227Z,55
2022-07-27T04:45:27.229Z,55
2022-07-27T04:48:27.226Z,55
2022-07-27T04:51:30.031Z,56
2022-07-27T04:54:27.238Z,56
2022-07-27T04:57:27.225Z,56
2022-07-27T05:00:27.235Z,56
2022-07-27T05:03:27.229Z,56
2022-07-27T05:06:27.252Z,56
2022-07-27T05:09:27.231Z,56
2022-07-27T05:12:27.259Z,56
2022-07-27T05:15:27.233Z,56
2022-07-27T05:18:27.249Z,56
2022-07-27T05:21:27.280Z,56
2022-07-27T05:24:27.246Z,56
2022-07-27T05:27:27.272Z,56
2022-07-27T05:30:27.253Z,56
2022-07-27T05:33:27.252Z,56
2022-07-27T05:36:27.249Z,56
2022-07-27T05:39:27.251Z,56
2022-07-27T05:42:27.257Z,56
2022-07-27T05:45:27.294Z,56
2022-07-27T05:48:27.252Z,56
2022-07-27T05:51:27.251Z,56
2022-07-27T05:57:27.257Z,56
2022-07-27T06:00:27.255Z,56
2022-07-27T06:03:27.305Z,56
2022-07-27T06:09:27.263Z,56
2022-07-27T06:12:27.621Z,56
2022-07-27T06:15:27.261Z,56
2022-07-27T06:18:27.254Z,56
2022-07-27T06:21:27.261Z,56
2022-07-27T06:24:27.259Z,56
2022-07-27T06:27:29.533Z,56
2022-07-27T06:33:27.258Z,56
2022-07-27T06:36:27.274Z,56
2022-07-27T06:39:27.270Z,56
2022-07-27T06:42:27.272Z,56
2022-07-27T06:45:27.269Z,56
2022-07-27T06:48:27.263Z,56
2022-07-27T06:51:27.270Z,56
2022-07-27T06:54:27.264Z,56
2022-07-27T06:57:27.275Z,55
2022-07-27T07:00:27.398Z,55
2022-07-27T07:03:27.326Z,55
2022-07-27T07:06:27.285Z,55
2022-07-27T07:09:27.265Z,55
2022-07-27T07:12:27.289Z,55
2022-07-27T07:15:27.325Z,55
2022-07-27T07:18:27.277Z,55
2022-07-27T07:21:27.267Z,55
2022-07-27T07:24:27.292Z,55
2022-07-27T07:27:27.274Z,54
2022-07-27T07:30:27.265Z,54
2022-07-27T07:33:27.287Z,54
2022-07-27T07:36:27.292Z,54
2022-07-27T07:39:31.273Z,54
2022-07-27T07:42:27.288Z,54
2022-07-27T07:45:27.271Z,54
2022-07-27T07:48:27.273Z,54
2022-07-27T07:51:27.273Z,54
2022-07-27T07:54:27.281Z,54
2022-07-27T07:57:27.281Z,53
2022-07-27T08:00:27.283Z,53
2022-07-27T08:03:27.349Z,53
2022-07-27T08:06:27.274Z,53
2022-07-27T08:09:27.265Z,52
2022-07-27T08:12:27.292Z,52
2022-07-27T08:15:30.188Z,52
2022-07-27T08:18:27.273Z,52
2022-07-27T08:21:27.271Z,52
2022-07-27T08:24:27.274Z,51
2022-07-27T08:27:27.286Z,51
2022-07-27T08:30:27.279Z,51
2022-07-27T08:33:27.273Z,50
2022-07-27T08:36:27.278Z,49
2022-07-27T08:40:06.139Z,50
2022-07-27T08:42:27.288Z,49
2022-07-27T08:45:27.302Z,48
2022-07-27T08:48:27.287Z,47
2022-07-27T08:51:27.300Z,47
2022-07-27T08:54:27.304Z,47
2022-07-27T08:57:27.278Z,47
2022-07-27T09:00:27.285Z,47
2022-07-27T09:03:27.360Z,47
2022-07-27T09:06:27.281Z,47
2022-07-27T09:09:27.281Z,46
2022-07-27T09:12:27.293Z,45
2022-07-27T09:15:34.097Z,45
2022-07-27T09:18:27.383Z,45
2022-07-27T09:21:27.283Z,45
2022-07-27T09:24:45.976Z,45
2022-07-27T09:27:27.282Z,45
2022-07-27T09:30:27.289Z,45
2022-07-27T09:33:27.297Z,45
2022-07-27T09:36:27.288Z,44
2022-07-27T09:39:27.288Z,43
2022-07-27T09:43:03.732Z,43
2022-07-27T09:45:27.292Z,43
2022-07-27T09:48:27.298Z,44
2022-07-27T09:51:58.622Z,44
2022-07-27T09:54:27.326Z,44
2022-07-27T09:57:27.323Z,44
2022-07-27T10:00:27.384Z,43
2022-07-27T10:03:27.304Z,43
2022-07-27T10:06:27.323Z,43
2022-07-27T10:09:27.309Z,43
2022-07-27T10:12:27.310Z,43
2022-07-27T10:15:27.407Z,43
2022-07-27T10:18:27.304Z,43
2022-07-27T10:21:27.311Z,43
2022-07-27T10:24:27.312Z,42
2022-07-27T10:27:27.314Z,42
2022-07-27T10:30:27.748Z,43
2022-07-27T10:33:27.324Z,43
2022-07-27T10:36:27.312Z,43
2022-07-27T10:39:27.322Z,43
2022-07-27T10:42:27.335Z,43
2022-07-27T10:45:27.310Z,43
2022-07-27T10:48:27.315Z,42
2022-07-27T10:51:27.316Z,42
2022-07-27T10:54:27.674Z,42
2022-07-27T10:57:27.325Z,42
2022-07-27T11:00:27.309Z,43
2022-07-27T11:03:27.321Z,43
2022-07-27T11:06:34.935Z,43
2022-07-27T11:12:27.324Z,43
2022-07-27T11:15:27.318Z,43
2022-07-27T11:21:27.325Z,44
2022-07-27T11:24:27.328Z,44
2022-07-27T11:27:27.327Z,44
2022-07-27T11:30:27.597Z,44
2022-07-27T11:33:27.333Z,44
2022-07-27T11:36:27.332Z,44
2022-07-27T11:39:54.631Z,43
2022-07-27T11:42:27.371Z,43
2022-07-27T11:45:27.343Z,43
2022-07-27T11:48:39.079Z,43
2022-07-27T11:51:27.337Z,43
2022-07-27T11:54:27.357Z,43
2022-07-27T11:57:27.349Z,44
2022-07-27T12:00:27.342Z,44
2022-07-27T12:03:32.177Z,44
2022-07-27T12:06:27.345Z,44
2022-07-27T12:09:27.340Z,44
2022-07-27T12:12:27.347Z,44
2022-07-27T12:15:45.039Z,44
2022-07-27T12:18:27.349Z,43
2022-07-27T12:21:27.342Z,43
2022-07-27T12:24:27.359Z,43
2022-07-27T12:27:27.354Z,43
2022-07-27T12:30:27.365Z,43
2022-07-27T12:33:27.342Z,43
2022-07-27T12:36:27.346Z,43
2022-07-27T12:39:27.342Z,43
2022-07-27T12:42:27.357Z,43
2022-07-27T12:48:27.354Z,43
2022-07-27T12:51:27.353Z,43
2022-07-27T12:54:27.359Z,43
2022-07-27T12:57:46.587Z,43
2022-07-27T13:00:32.786Z,43
2022-07-27T13:03:27.345Z,43
2022-07-27T13:06:27.355Z,43
2022-07-27T13:10:02.590Z,43
2022-07-27T13:12:27.363Z,43
2022-07-27T13:15:27.352Z,43
2022-07-27T13:18:27.355Z,43
2022-07-27T13:21:27.753Z,43
2022-07-27T13:24:27.357Z,43
2022-07-27T13:27:27.365Z,43
2022-07-27T13:30:27.355Z,43
2022-07-27T13:33:27.355Z,43
2022-07-27T13:36:27.350Z,43
2022-07-27T13:39:27.379Z,43
2022-07-27T13:42:27.366Z,43
2022-07-27T13:45:27.382Z,42
2022-07-27T13:48:27.355Z,42
2022-07-27T13:51:27.363Z,42
2022-07-27T13:54:27.368Z,42
2022-07-27T13:57:27.368Z,42
2022-07-27T14:00:27.359Z,42
2022-07-27T14:03:27.359Z,42
2022-07-27T14:06:27.361Z,42
2022-07-27T14:09:27.364Z,42
2022-07-27T14:12:27.383Z,42
2022-07-27T14:15:27.367Z,42
2022-07-27T14:18:27.379Z,42
2022-07-27T14:21:27.364Z,42
2022-07-27T14:24:27.390Z,42
2022-07-27T14:27:33.767Z,42
2022-07-27T14:30:27.374Z,42
2022-07-27T14:36:27.368Z,42
2022-07-27T14:39:27.382Z,42
2022-07-27T14:42:27.738Z,42
2022-07-27T14:45:43.852Z,42
2022-07-27T14:48:42.489Z,42
2022-07-27T14:51:27.376Z,42
2022-07-27T14:54:27.366Z,42
2022-07-27T14:57:27.387Z,42
2022-07-27T15:00:27.409Z,42
2022-07-27T15:03:27.375Z,42
2022-07-27T15:06:27.379Z,42
2022-07-27T15:09:27.381Z,42
2022-07-27T15:12:27.404Z,42
2022-07-27T15:15:27.372Z,42
2022-07-27T15:18:27.381Z,41
2022-07-27T15:21:27.382Z,41
2022-07-27T15:24:27.375Z,41
2022-07-27T15:27:27.393Z,41
2022-07-27T15:30:27.368Z,41
2022-07-27T15:33:27.395Z,42
2022-07-27T15:36:31.751Z,41
2022-07-27T15:39:27.396Z,41
2022-07-27T15:42:27.400Z,41
2022-07-27T15:45:27.383Z,41
2022-07-27T15:48:27.378Z,41
2022-07-27T15:51:27.390Z,41
2022-07-27T15:54:30.159Z,41
2022-07-27T15:57:27.400Z,41
2022-07-27T16:00:27.397Z,41
2022-07-27T16:03:27.491Z,41
2022-07-27T16:06:27.381Z,41
2022-07-27T16:09:27.400Z,41
2022-07-27T16:12:27.395Z,40
2022-07-27T16:15:27.394Z,40
2022-07-27T16:18:27.399Z,40
2022-07-27T16:21:27.401Z,40
2022-07-27T16:24:27.390Z,40
2022-07-27T16:27:27.400Z,40
2022-07-27T16:30:27.383Z,40
2022-07-27T16:33:27.413Z,40
2022-07-27T16:36:27.404Z,39
2022-07-27T16:39:27.395Z,40
2022-07-27T16:42:27.406Z,40
2022-07-27T16:45:27.401Z,40
2022-07-27T16:48:27.416Z,40
2022-07-27T16:51:27.405Z,40
2022-07-27T16:54:27.395Z,40
2022-07-27T16:57:27.401Z,40
2022-07-27T17:00:27.398Z,40
2022-07-27T17:03:27.396Z,40
2022-07-27T17:06:27.400Z,40
2022-07-27T17:09:27.399Z,40
2022-07-27T17:12:27.405Z,40
2022-07-27T17:15:27.394Z,40
2022-07-27T17:18:27.402Z,40
2022-07-27T17:21:27.402Z,40
2022-07-27T17:24:27.404Z,40
2022-07-27T17:27:27.420Z,40
2022-07-27T17:30:27.404Z,40
2022-07-27T17:33:27.393Z,40
2022-07-27T17:36:27.395Z,41
2022-07-27T17:39:27.394Z,41
2022-07-27T17:42:27.405Z,41
2022-07-27T17:45:27.409Z,41
2022-07-27T17:48:27.396Z,41
2022-07-27T17:51:27.398Z,41
2022-07-27T17:54:27.462Z,41
2022-07-27T17:57:27.454Z,41
2022-07-27T18:00:27.453Z,41
2022-07-27T18:03:27.460Z,41
2022-07-27T18:06:27.447Z,41
2022-07-27T18:09:27.461Z,41
2022-07-27T18:12:27.477Z,41
2022-07-27T18:15:27.487Z,41
2022-07-27T18:18:27.492Z,41
2022-07-27T18:21:27.468Z,41
2022-07-27T18:24:27.477Z,41
2022-07-27T18:27:27.494Z,41
2022-07-27T18:30:27.478Z,41
2022-07-27T18:33:27.475Z,41
2022-07-27T18:36:27.471Z,41
2022-07-27T18:42:27.487Z,42
2022-07-27T18:45:34.123Z,42
2022-07-27T18:48:27.497Z,42
2022-07-27T18:51:27.481Z,42
2022-07-27T18:54:27.479Z,42
2022-07-27T18:57:27.471Z,42
2022-07-27T19:00:27.504Z,42
2022-07-27T19:03:27.829Z,42
2022-07-27T19:06:27.486Z,42
2022-07-27T19:09:27.488Z,42
2022-07-27T19:12:27.480Z,42
2022-07-27T19:15:27.487Z,42
2022-07-27T19:18:27.485Z,42
2022-07-27T19:21:27.488Z,42
2022-07-27T19:24:27.475Z,42
2022-07-27T19:27:27.501Z,42
2022-07-27T19:30:27.592Z,42
2022-07-27T19:33:27.494Z,42
2022-07-27T19:36:27.490Z,42
2022-07-27T19:39:27.491Z,42
2022-07-27T19:42:27.491Z,42
2022-07-27T19:45:27.492Z,42
2022-07-27T19:48:27.480Z,42
2022-07-27T19:51:27.492Z,42
2022-07-27T19:54:27.493Z,42
2022-07-27T19:57:27.543Z,42
2022-07-27T20:00:27.484Z,42
2022-07-27T20:03:27.509Z,42
2022-07-27T20:06:27.481Z,42
2022-07-27T20:09:27.502Z,43
2022-07-27T20:12:27.516Z,43
2022-07-27T20:15:27.539Z,43
2022-07-27T20:18:27.512Z,43
2022-07-27T20:21:27.502Z,43
2022-07-27T20:24:27.506Z,43
2022-07-27T20:27:27.516Z,43
2022-07-27T20:30:27.577Z,43
2022-07-27T20:33:31.119Z,43
2022-07-27T20:36:27.512Z,43
2022-07-27T20:39:27.529Z,43
2022-07-27T20:42:27.523Z,43
2022-07-27T20:45:27.511Z,43
2022-07-27T20:48:27.507Z,43
2022-07-27T20:51:27.492Z,43
2022-07-27T20:54:29.294Z,43
2022-07-27T20:57:27.506Z,43
2022-07-27T21:00:29.280Z,43
2022-07-27T21:03:27.503Z,43
2022-07-27T21:06:27.511Z,43
2022-07-27T21:09:27.512Z,43
2022-07-27T21:12:27.515Z,43
2022-07-27T21:15:33.398Z,43
2022-07-27T21:18:27.511Z,43
2022-07-27T21:21:27.887Z,43
2022-07-27T21:24:27.512Z,43
2022-07-27T21:27:27.515Z,43
2022-07-27T21:30:27.508Z,43
2022-07-27T21:33:27.552Z,44
2022-07-27T21:36:27.585Z,44
2022-07-27T21:39:27.511Z,44
2022-07-27T21:42:27.511Z,43
2022-07-27T21:45:27.572Z,43
2022-07-27T21:51:27.515Z,44
2022-07-27T21:54:27.509Z,44
2022-07-27T21:57:27.529Z,44
2022-07-27T22:00:27.514Z,44
2022-07-27T22:03:27.510Z,44
2022-07-27T22:06:27.506Z,44
2022-07-27T22:09:27.513Z,44
2022-07-27T22:12:27.526Z,44
2022-07-27T22:15:27.521Z,44
2022-07-27T22:18:27.515Z,44
2022-07-27T22:21:27.517Z,44
2022-07-27T22:24:27.513Z,44
2022-07-27T22:27:27.521Z,44
2022-07-27T22:30:27.525Z,44
2022-07-27T22:33:27.523Z,44
2022-07-27T22:36:27.517Z,44
2022-07-27T22:39:27.526Z,44
2022-07-27T22:45:27.548Z,44
2022-07-27T22:48:27.524Z,45
2022-07-27T22:51:48.619Z,45
2022-07-27T22:54:27.532Z,45
2022-07-27T22:57:27.535Z,45
2022-07-27T23:00:27.590Z,45
2022-07-27T23:03:27.520Z,45
2022-07-27T23:06:27.520Z,45
2022-07-27T23:09:27.559Z,45
2022-07-27T23:12:27.541Z,45
2022-07-27T23:15:27.520Z,45
2022-07-27T23:18:27.524Z,45
2022-07-27T23:21:27.541Z,45
2022-07-27T23:24:28.997Z,45
2022-07-27T23:27:27.539Z,45
2022-07-27T23:30:27.517Z,45
2022-07-27T23:33:27.520Z,45
2022-07-27T23:36:27.543Z,45
2022-07-27T23:39:27.542Z,45
2022-07-27T23:42:27.560Z,45
2022-07-27T23:45:27.522Z,45
2022-07-27T23:48:28.919Z,45
2022-07-27T23:51:27.549Z,45
2022-07-27T23:54:27.544Z,45
